Time;durP1;ratioP1;P1;durP2;ratioP2;P2;SDS_P1;SDS_P2;PMS_P1;PMS_P2;Temp;Humidity;BMP_temperature;BMP_pressure;BME280_temperature;BME280_humidity;BME280_pressure;Samples;Min_cycle;Max_cycle;Signal;HPM_P1;HPM_P2
2023/06/03 00:02:05;;;;;;;2.77;1.53;;;11.80;99.90;;;;;;4982267;28;20982;-87
2023/06/03 00:04:32;;;;;;;8.40;1.60;;;;;;;;;;4992325;28;20485;-87
2023/06/03 00:07:00;;;;;;;1.47;1.37;;;11.80;99.90;;;;;;4980939;28;20515;-88
2023/06/03 00:09:27;;;;;;;1.90;1.80;;;11.70;99.90;;;;;;4980761;28;20457;-87
2023/06/03 00:11:54;;;;;;;3.10;1.93;;;11.70;99.90;;;;;;4982812;28;20476;-87
2023/06/03 00:14:21;;;;;;;3.00;1.90;;;11.90;99.90;;;;;;4980774;28;20515;-87
2023/06/03 00:16:48;;;;;;;2.10;1.90;;;11.70;99.90;;;;;;4979808;28;20446;-87
2023/06/03 00:19:17;;;;;;;1.67;1.33;;;12.00;99.90;;;;;;4979666;28;20806;-87
2023/06/03 00:21:45;;;;;;;1.37;1.27;;;;;;;;;;4979250;28;20552;-87
2023/06/03 00:24:12;;;;;;;2.17;1.43;;;;;;;;;;4984060;28;20446;-87
2023/06/03 00:26:39;;;;;;;4.17;2.20;;;11.60;99.90;;;;;;4980616;28;20956;-87
2023/06/03 00:29:06;;;;;;;3.20;2.90;;;11.60;99.90;;;;;;4980580;28;20480;-87
2023/06/03 00:31:33;;;;;;;1.80;1.70;;;11.60;99.90;;;;;;4999653;28;20500;-87
2023/06/03 00:34:00;;;;;;;3.37;2.10;;;11.20;99.90;;;;;;4997902;28;20491;-87
2023/06/03 00:36:28;;;;;;;2.63;2.23;;;11.40;99.90;;;;;;4981242;28;20515;-87
2023/06/03 00:38:55;;;;;;;2.00;1.90;;;11.40;99.90;;;;;;4980801;28;20937;-87
2023/06/03 00:41:22;;;;;;;4.23;2.50;;;11.50;99.90;;;;;;4980858;28;20568;-87
2023/06/03 00:43:49;;;;;;;2.60;2.20;;;;;;;;;;4981717;28;20540;-87
2023/06/03 00:46:18;;;;;;;2.47;2.00;;;11.40;99.90;;;;;;4982176;28;20451;-87
2023/06/03 00:48:45;;;;;;;3.30;3.00;;;11.40;99.90;;;;;;4982191;28;20488;-87
2023/06/03 00:51:12;;;;;;;4.50;2.53;;;11.30;99.90;;;;;;4983048;28;20477;-87
2023/06/03 00:53:40;;;;;;;4.90;2.47;;;11.30;99.90;;;;;;4980851;28;21018;-88
2023/06/03 00:56:08;;;;;;;3.00;2.70;;;11.10;99.90;;;;;;4980680;28;20536;-88
2023/06/03 00:58:35;;;;;;;2.60;2.40;;;;;;;;;;4994060;28;20505;-87
2023/06/03 01:01:02;;;;;;;3.70;2.87;;;11.30;99.90;;;;;;4999268;28;20530;-88
2023/06/03 01:03:29;;;;;;;4.20;2.50;;;11.20;99.90;;;;;;4997181;28;20454;-87
2023/06/03 01:06:03;;;;;;;2.67;2.47;;;11.20;99.90;;;;;;4992744;28;20469;-88
2023/06/03 01:08:37;;;;;;;2.93;2.50;;;11.10;99.90;;;;;;5000677;28;20414;-85
2023/06/03 01:11:10;;;;;;;2.40;2.20;;;11.10;99.90;;;;;;5000974;28;20473;-85
2023/06/03 01:13:47;;;;;;;3.80;3.10;;;11.10;99.90;;;;;;4998126;28;20466;-88
2023/06/03 01:16:17;;;;;;;5.80;2.90;;;11.00;99.90;;;;;;4989449;28;20453;-87
2023/06/03 01:18:46;;;;;;;4.23;2.87;;;10.90;99.90;;;;;;4984281;28;20450;-86
2023/06/03 01:21:14;;;;;;;2.57;2.37;;;11.00;99.90;;;;;;4981128;28;20533;-87
2023/06/03 01:23:46;;;;;;;2.90;2.70;;;11.00;99.90;;;;;;4980876;28;20479;-87
2023/06/03 01:26:13;;;;;;;3.60;3.17;;;11.00;99.90;;;;;;4986415;28;20446;-87
2023/06/03 01:28:40;;;;;;;4.10;2.40;;;10.90;99.90;;;;;;4984166;28;20431;-87
2023/06/03 01:31:07;;;;;;;2.93;2.73;;;10.60;99.90;;;;;;5034920;23;20520;-87
2023/06/03 01:33:36;;;;;;;3.33;2.90;;;10.80;99.90;;;;;;5011464;28;20467;-86
2023/06/03 01:36:05;;;;;;;2.87;2.67;;;10.80;99.90;;;;;;5014334;28;20507;-86
2023/06/03 01:38:33;;;;;;;3.43;2.83;;;10.80;99.90;;;;;;5012630;28;20523;-86
2023/06/03 01:41:02;;;;;;;2.37;2.17;;;10.80;99.90;;;;;;5013633;28;20564;-87
2023/06/03 01:43:30;;;;;;;7.33;2.37;;;10.80;99.90;;;;;;5014772;28;20454;-87
2023/06/03 01:45:57;;;;;;;2.07;1.97;;;10.80;99.90;;;;;;5016147;28;20445;-87
2023/06/03 01:48:24;;;;;;;2.43;2.23;;;10.80;99.90;;;;;;5016777;28;20451;-87
2023/06/03 01:50:51;;;;;;;2.40;2.20;;;10.70;99.90;;;;;;5012489;28;20444;-87
2023/06/03 01:53:18;;;;;;;2.43;2.23;;;10.60;99.90;;;;;;5012807;28;20417;-87
2023/06/03 01:55:46;;;;;;;3.10;2.20;;;10.60;99.90;;;;;;5008776;28;20476;-85
2023/06/03 01:58:14;;;;;;;3.63;2.60;;;10.60;99.90;;;;;;5002477;28;20433;-86
2023/06/03 02:00:41;;;;;;;3.30;2.50;;;10.50;99.90;;;;;;5004450;28;20464;-87
2023/06/03 02:03:08;;;;;;;3.27;2.97;;;10.50;99.90;;;;;;5000228;28;20523;-86
2023/06/03 02:05:35;;;;;;;2.47;2.27;;;10.50;99.90;;;;;;5001077;28;20890;-85
2023/06/03 02:08:02;;;;;;;6.93;2.53;;;10.50;99.90;;;;;;5000401;28;20464;-87
2023/06/03 02:10:29;;;;;;;2.40;1.63;;;10.40;99.90;;;;;;5000677;28;20475;-86
2023/06/03 02:12:56;;;;;;;3.30;2.03;;;10.50;99.90;;;;;;4999804;28;20423;-86
2023/06/03 02:15:24;;;;;;;3.07;2.03;;;10.40;99.90;;;;;;4999524;28;20460;-86
2023/06/03 02:17:51;;;;;;;3.60;1.63;;;10.40;99.90;;;;;;5007510;28;20455;-87
2023/06/03 02:20:18;;;;;;;1.73;1.60;;;10.40;99.90;;;;;;5007678;28;20540;-87
2023/06/03 02:22:44;;;;;;;1.40;1.30;;;10.40;99.90;;;;;;5018455;28;20479;-85
2023/06/03 02:25:11;;;;;;;3.13;1.80;;;10.40;99.90;;;;;;5014091;28;20439;-87
2023/06/03 02:27:38;;;;;;;1.90;1.33;;;10.40;99.90;;;;;;5002844;28;20419;-86
2023/06/03 02:30:07;;;;;;;1.60;1.40;;;10.40;99.90;;;;;;5002319;28;20455;-87
2023/06/03 02:32:35;;;;;;;1.33;1.23;;;10.30;99.90;;;;;;5000364;28;20423;-87
2023/06/03 02:35:02;;;;;;;3.10;1.27;;;10.30;99.90;;;;;;5000045;28;20457;-86
2023/06/03 02:37:30;;;;;;;3.05;1.40;;;10.30;99.90;;;;;;4999916;28;20452;-86
2023/06/03 02:39:57;;;;;;;2.37;1.50;;;10.40;99.90;;;;;;4999647;28;20209;-87
2023/06/03 02:42:24;;;;;;;1.53;1.40;;;10.30;99.90;;;;;;4999898;28;20484;-87
2023/06/03 02:44:51;;;;;;;1.60;1.50;;;10.30;99.90;;;;;;4999512;28;20995;-86
2023/06/03 02:47:18;;;;;;;3.70;1.60;;;10.30;99.90;;;;;;5000036;28;20518;-86
2023/06/03 02:49:47;;;;;;;1.47;1.37;;;10.20;99.90;;;;;;5000069;28;20484;-88
2023/06/03 02:52:13;;;;;;;2.07;1.70;;;10.20;99.90;;;;;;5000426;28;20512;-87
2023/06/03 02:54:40;;;;;;;2.97;1.33;;;10.20;99.90;;;;;;5000578;28;20462;-87
2023/06/03 02:57:08;;;;;;;1.63;1.53;;;9.50;99.90;;;;;;5000851;28;20491;-87
2023/06/03 02:59:35;;;;;;;2.13;1.50;;;10.20;99.90;;;;;;4999784;28;20994;-87
2023/06/03 03:02:02;;;;;;;2.60;1.23;;;10.50;99.90;;;;;;5007602;28;20480;-86
2023/06/03 03:04:36;;;;;;;1.90;1.67;;;10.30;99.90;;;;;;4998787;28;20488;-87
2023/06/03 03:07:07;;;;;;;2.30;1.37;;;10.10;99.90;;;;;;4998651;28;20448;-87
2023/06/03 03:09:34;;;;;;;1.40;1.30;;;10.10;99.90;;;;;;4999286;28;20545;-87
2023/06/03 03:12:01;;;;;;;1.70;1.60;;;10.10;99.90;;;;;;5002217;28;20451;-85
2023/06/03 03:14:28;;;;;;;1.50;1.40;;;10.10;99.90;;;;;;5014572;28;20475;-86
2023/06/03 03:16:55;;;;;;;2.50;1.30;;;10.10;99.90;;;;;;5011570;28;20449;-85
2023/06/03 03:19:22;;;;;;;1.33;1.23;;;10.10;99.90;;;;;;5004542;28;20488;-87
2023/06/03 03:21:49;;;;;;;1.43;1.20;;;10.00;99.90;;;;;;5003747;28;20860;-87
2023/06/03 03:24:19;;;;;;;1.40;1.30;;;10.30;99.90;;;;;;5002718;28;20523;-87
2023/06/03 03:26:46;;;;;;;2.23;1.40;;;10.10;99.90;;;;;;5002904;28;20427;-87
2023/06/03 03:29:13;;;;;;;2.03;1.23;;;10.00;99.90;;;;;;5000421;28;20445;-87
2023/06/03 03:31:40;;;;;;;1.57;1.47;;;9.90;99.90;;;;;;5002312;28;20572;-87
2023/06/03 03:34:07;;;;;;;1.40;1.30;;;10.00;99.90;;;;;;5001683;28;20465;-87
2023/06/03 03:36:36;;;;;;;1.43;1.33;;;10.00;99.90;;;;;;5002320;28;20863;-87
2023/06/03 03:39:05;;;;;;;2.80;2.60;;;9.90;99.90;;;;;;5007641;28;20448;-86
2023/06/03 03:41:33;;;;;;;1.50;1.40;;;9.90;99.90;;;;;;5007216;28;20447;-87
2023/06/03 03:44:02;;;;;;;2.10;1.13;;;9.90;99.90;;;;;;5015920;28;20490;-86
2023/06/03 03:46:30;;;;;;;4.00;1.63;;;10.00;99.90;;;;;;5009184;28;20427;-88
2023/06/03 03:48:59;;;;;;;1.70;1.60;;;9.90;99.90;;;;;;5004820;28;20453;-87
2023/06/03 03:51:26;;;;;;;1.30;1.20;;;9.90;99.90;;;;;;5004193;28;20551;-87
2023/06/03 03:53:53;;;;;;;1.40;1.30;;;9.90;99.90;;;;;;5003600;28;20454;-87
2023/06/03 03:56:21;;;;;;;1.97;1.33;;;9.90;99.90;;;;;;5005002;28;20419;-87
2023/06/03 03:58:52;;;;;;;6.50;1.37;;;9.90;99.90;;;;;;5003390;28;20463;-86
2023/06/03 04:01:22;;;;;;;2.20;1.57;;;9.80;99.90;;;;;;5003526;28;20532;-89
2023/06/03 04:03:50;;;;;;;2.47;2.27;;;9.80;99.90;;;;;;5002921;28;20563;-85
2023/06/03 04:06:30;;;;;;;1.83;1.53;;;9.80;99.90;;;;;;5003805;28;20463;-87
2023/06/03 04:08:58;;;;;;;1.83;1.40;;;9.80;99.90;;;;;;5002595;28;20412;-85
2023/06/03 04:11:27;;;;;;;2.80;1.43;;;9.80;99.90;;;;;;5001614;28;20881;-85
2023/06/03 04:13:55;;;;;;;1.70;1.60;;;9.80;99.90;;;;;;5008428;28;20471;-87
2023/06/03 04:16:44;;;;;;;1.70;1.47;;;9.80;99.90;;;;;;5003817;28;20440;-85
2023/06/03 04:19:15;;;;;;;2.27;1.60;;;10.00;99.90;;;;;;5004313;28;20412;-87
2023/06/03 04:21:42;;;;;;;3.43;1.57;;;9.90;99.90;;;;;;5002077;28;20458;-87
2023/06/03 04:24:09;;;;;;;5.30;1.90;;;10.00;99.90;;;;;;5002910;28;20575;-86
2023/06/03 04:26:38;;;;;;;1.40;1.30;;;9.90;99.90;;;;;;5006440;28;20465;-86
2023/06/03 04:29:06;;;;;;;5.50;2.27;;;10.00;99.90;;;;;;5003889;28;20426;-87
2023/06/03 04:31:33;;;;;;;10.33;1.67;;;10.00;99.90;;;;;;5000374;28;20487;-86
2023/06/03 04:34:00;;;;;;;3.17;1.80;;;10.00;99.90;;;;;;5000043;28;20886;-87
2023/06/03 04:36:27;;;;;;;3.87;1.73;;;10.00;99.90;;;;;;5000884;28;20540;-86
2023/06/03 04:38:54;;;;;;;2.97;1.67;;;10.10;99.90;;;;;;4999847;28;20457;-86
2023/06/03 04:41:22;;;;;;;1.83;1.73;;;10.00;99.90;;;;;;5004746;28;20540;-87
2023/06/03 04:43:52;;;;;;;2.90;1.77;;;10.00;99.90;;;;;;5011241;28;20463;-87
2023/06/03 04:46:21;;;;;;;2.70;1.73;;;10.10;99.90;;;;;;5009094;28;20404;-87
2023/06/03 04:48:48;;;;;;;12.10;2.27;;;10.10;99.90;;;;;;5006262;28;20901;-88
2023/06/03 04:51:15;;;;;;;2.13;1.80;;;10.20;99.90;;;;;;5004436;28;20440;-89
2023/06/03 04:53:42;;;;;;;1.77;1.67;;;10.20;99.90;;;;;;5004428;28;20479;-87
2023/06/03 04:56:09;;;;;;;5.93;1.90;;;10.30;99.90;;;;;;5004973;28;20436;-87
2023/06/03 04:58:36;;;;;;;7.13;1.40;;;10.30;99.90;;;;;;5003621;28;20857;-86
2023/06/03 05:01:04;;;;;;;1.70;1.60;;;10.30;99.90;;;;;;5003106;28;20509;-86
2023/06/03 05:03:35;;;;;;;1.60;1.50;;;10.40;99.90;;;;;;5001953;28;20507;-85
2023/06/03 05:06:04;;;;;;;4.10;1.83;;;10.40;99.90;;;;;;5002693;28;20478;-87
2023/06/03 05:08:30;;;;;;;1.67;1.50;;;10.50;99.90;;;;;;5001988;28;20453;-86
2023/06/03 05:10:57;;;;;;;6.23;1.63;;;10.50;99.90;;;;;;5002101;28;20520;-87
2023/06/03 05:13:25;;;;;;;2.73;1.90;;;10.50;99.90;;;;;;5004501;28;20453;-85
2023/06/03 05:15:52;;;;;;;2.57;2.23;;;10.60;99.90;;;;;;4999335;28;20780;-85
2023/06/03 05:18:19;;;;;;;3.37;2.47;;;10.60;99.90;;;;;;4999922;28;20459;-87
2023/06/03 05:20:47;;;;;;;13.17;2.27;;;10.70;99.90;;;;;;5001447;28;20443;-86
2023/06/03 05:23:14;;;;;;;4.20;2.37;;;10.80;1.00;;;;;;5008940;28;20455;-85
2023/06/03 05:25:41;;;;;;;2.30;2.10;;;10.80;99.90;;;;;;5019854;28;20479;-86
2023/06/03 05:28:07;;;;;;;2.67;1.90;;;10.70;99.90;;;;;;5011204;28;20501;-86
2023/06/03 05:30:34;;;;;;;2.50;2.30;;;10.70;99.90;;;;;;5005724;28;20541;-87
2023/06/03 05:33:01;;;;;;;3.03;1.43;;;10.80;99.90;;;;;;5004328;28;20462;-87
2023/06/03 05:35:28;;;;;;;2.40;1.70;;;10.80;99.90;;;;;;5000998;28;20443;-87
2023/06/03 05:37:56;;;;;;;2.10;2.00;;;10.80;99.90;;;;;;5000850;28;20492;-87
2023/06/03 05:40:23;;;;;;;3.63;1.80;;;10.90;99.90;;;;;;5001399;28;21074;-87
2023/06/03 05:42:50;;;;;;;2.17;1.93;;;10.90;99.90;;;;;;5007807;28;20469;-85
2023/06/03 05:45:17;;;;;;;2.93;1.63;;;10.90;99.90;;;;;;5019703;28;20548;-86
2023/06/03 05:47:44;;;;;;;4.50;1.50;;;11.00;99.90;;;;;;5018939;28;20396;-86
2023/06/03 05:50:12;;;;;;;3.40;1.90;;;11.00;99.90;;;;;;5018845;28;20446;-86
2023/06/03 05:52:38;;;;;;;1.90;1.53;;;11.20;99.90;;;;;;5008456;28;20778;-87
2023/06/03 05:55:08;;;;;;;1.87;1.70;;;11.20;99.90;;;;;;5002802;28;20468;-87
2023/06/03 05:57:35;;;;;;;1.67;1.57;;;11.30;99.90;;;;;;5001638;28;20806;-87
2023/06/03 06:00:02;;;;;;;3.13;1.63;;;11.30;99.90;;;;;;5004089;28;20566;-87
2023/06/03 06:02:29;;;;;;;3.77;1.73;;;11.40;99.90;;;;;;5007133;28;20864;-87
2023/06/03 06:04:56;;;;;;;2.30;1.93;;;11.50;99.90;;;;;;5005957;28;20469;-85
2023/06/03 06:07:23;;;;;;;3.50;1.87;;;11.60;99.90;;;;;;5003272;28;20445;-87
2023/06/03 06:09:50;;;;;;;1.80;1.60;;;12.10;1.00;;;;;;5001714;28;20528;-86
2023/06/03 06:12:18;;;;;;;2.43;2.00;;;11.90;99.90;;;;;;5009998;28;20464;-85
2023/06/03 06:14:45;;;;;;;3.40;2.10;;;11.90;99.90;;;;;;5019309;28;20470;-86
2023/06/03 06:17:16;;;;;;;2.73;1.97;;;12.00;99.90;;;;;;5018441;28;20433;-86
2023/06/03 06:19:43;;;;;;;3.33;2.00;;;12.20;99.90;;;;;;5003021;28;20437;-85
2023/06/03 06:22:10;;;;;;;2.50;2.20;;;12.20;99.90;;;;;;5000972;28;20452;-85
2023/06/03 06:24:38;;;;;;;7.20;2.33;;;12.20;99.90;;;;;;5000268;28;20462;-85
2023/06/03 06:27:06;;;;;;;7.07;1.83;;;12.20;99.90;;;;;;5000359;28;20484;-86
2023/06/03 06:29:34;;;;;;;2.13;1.90;;;12.20;99.90;;;;;;5001598;28;20428;-88
2023/06/03 06:32:03;;;;;;;6.23;1.83;;;12.30;99.90;;;;;;5002045;28;20477;-87
2023/06/03 06:34:31;;;;;;;2.80;2.43;;;12.90;1.00;;;;;;5005445;28;20445;-86
2023/06/03 06:37:00;;;;;;;3.43;2.80;;;12.60;99.90;;;;;;5016804;28;20480;-86
2023/06/03 06:39:47;;;;;;;2.63;2.20;;;12.80;99.90;;;;;;5015957;28;20474;-87
2023/06/03 06:42:16;;;;;;;3.33;1.77;;;12.80;99.90;;;;;;5003039;28;20774;-87
2023/06/03 06:44:47;;;;;;;1.70;1.60;;;12.80;99.90;;;;;;5007323;28;20654;-87
2023/06/03 06:47:18;;;;;;;1.87;1.63;;;12.90;99.90;;;;;;5012131;28;20972;-87
2023/06/03 06:49:45;;;;;;;2.43;2.13;;;13.20;99.90;;;;;;5007471;28;20503;-87
2023/06/03 06:52:13;;;;;;;4.20;1.90;;;13.00;99.90;;;;;;5007553;28;20472;-86
2023/06/03 06:54:40;;;;;;;2.30;2.10;;;13.00;99.90;;;;;;5006207;28;21037;-87
2023/06/03 06:57:07;;;;;;;2.70;1.93;;;13.20;99.90;;;;;;5005197;28;20472;-87
2023/06/03 06:59:34;;;;;;;3.43;1.77;;;13.20;99.90;;;;;;5002691;28;20453;-87
2023/06/03 07:02:02;;;;;;;7.27;1.90;;;13.40;99.90;;;;;;5003675;28;20837;-87
2023/06/03 07:04:29;;;;;;;2.47;1.70;;;13.50;99.90;;;;;;5002304;28;20484;-87
2023/06/03 07:06:56;;;;;;;7.67;3.60;;;13.50;99.90;;;;;;5004840;28;20431;-87
2023/06/03 07:09:23;;;;;;;7.07;2.50;;;13.60;99.90;;;;;;4998534;28;20792;-85
2023/06/03 07:11:50;;;;;;;2.80;1.80;;;13.60;99.90;;;;;;4999225;28;20450;-85
2023/06/03 07:14:17;;;;;;;4.20;2.27;;;13.80;99.90;;;;;;5001585;28;20422;-85
2023/06/03 07:16:44;;;;;;;4.23;1.73;;;13.80;99.90;;;;;;5003734;28;20460;-87
2023/06/03 07:19:12;;;;;;;10.37;1.80;;;13.90;99.90;;;;;;5005746;28;20456;-87
2023/06/03 07:21:39;;;;;;;2.50;2.30;;;13.90;99.90;;;;;;5005018;28;20846;-86
2023/06/03 07:24:08;;;;;;;5.03;1.77;;;13.90;99.90;;;;;;5005016;28;20508;-86
2023/06/03 07:26:37;;;;;;;1.93;1.73;;;14.10;99.90;;;;;;5006188;28;20452;-86
2023/06/03 07:29:05;;;;;;;1.53;1.30;;;14.20;99.90;;;;;;5004980;28;22120;-87
2023/06/03 07:31:32;;;;;;;2.27;1.90;;;14.20;99.90;;;;;;5037516;23;20555;-87
2023/06/03 07:33:59;;;;;;;2.13;1.77;;;14.00;99.90;;;;;;5021102;28;20452;-87
2023/06/03 07:36:28;;;;;;;4.77;2.23;;;14.20;99.90;;;;;;5010280;28;20959;-88
2023/06/03 07:39:06;;;;;;;6.90;1.77;;;14.20;99.90;;;;;;5003356;28;20456;-87
2023/06/03 07:41:41;;;;;;;5.80;2.60;;;14.30;99.90;;;;;;5005260;28;20460;-87
2023/06/03 07:44:59;;;;;;;5.57;1.43;;;14.40;99.90;;;;;;5007754;28;20479;-87
2023/06/03 07:47:26;;;;;;;2.80;1.70;;;;;;;;;;5017921;28;20458;-85
2023/06/03 07:49:58;;;;;;;4.93;1.53;;;;;;;;;;5020166;28;20429;-86
2023/06/03 07:52:27;;;;;;;3.83;2.40;;;14.60;99.90;;;;;;5001328;28;20453;-87
2023/06/03 07:54:55;;;;;;;3.63;2.20;;;;;;;;;;5001083;28;20487;-87
2023/06/03 07:57:29;;;;;;;4.17;2.20;;;14.80;99.90;;;;;;5004048;28;20445;-87
2023/06/03 07:59:58;;;;;;;3.73;2.00;;;14.70;99.90;;;;;;5011701;28;20453;-88
2023/06/03 08:02:26;;;;;;;2.33;1.53;;;;;;;;;;5002664;28;20498;-87
2023/06/03 08:04:59;;;;;;;2.00;1.90;;;14.90;99.90;;;;;;5002093;28;20548;-88
2023/06/03 08:07:28;;;;;;;3.67;2.07;;;15.30;99.90;;;;;;5014976;28;20572;-87
2023/06/03 08:09:55;;;;;;;3.20;2.80;;;15.30;99.90;;;;;;5019009;28;20448;-87
2023/06/03 08:12:28;;;;;;;2.70;2.07;;;15.40;99.90;;;;;;5005258;28;20476;-83
2023/06/03 08:14:55;;;;;;;2.47;1.97;;;15.60;99.90;;;;;;5002173;28;20509;-86
2023/06/03 08:17:38;;;;;;;2.17;1.97;;;15.50;99.90;;;;;;4999177;28;20858;-85
2023/06/03 08:20:08;;;;;;;2.50;1.47;;;15.50;99.90;;;;;;5001913;28;20495;-84
2023/06/03 08:22:43;;;;;;;2.27;1.93;;;15.60;99.90;;;;;;4999630;28;20921;-84
2023/06/03 08:25:10;;;;;;;2.17;1.97;;;15.50;99.90;;;;;;5001284;28;20468;-85
2023/06/03 08:27:38;;;;;;;2.90;1.70;;;15.70;99.90;;;;;;5004872;28;20540;-85
2023/06/03 08:30:06;;;;;;;4.20;1.70;;;15.50;99.90;;;;;;5001773;28;20508;-84
2023/06/03 08:32:34;;;;;;;1.93;1.73;;;15.60;99.90;;;;;;5002776;28;20426;-86
2023/06/03 08:35:01;;;;;;;1.80;1.70;;;15.70;99.90;;;;;;4999911;28;20441;-85
2023/06/03 08:37:28;;;;;;;4.07;2.20;;;15.80;99.90;;;;;;4998748;28;20450;-85
2023/06/03 08:39:57;;;;;;;2.47;1.50;;;15.90;99.90;;;;;;5000197;28;20455;-86
2023/06/03 08:42:27;;;;;;;5.17;1.30;;;16.00;99.90;;;;;;5003036;28;20499;-85
2023/06/03 08:45:03;;;;;;;2.80;1.53;;;15.90;99.90;;;;;;5002666;28;20469;-85
2023/06/03 08:47:36;;;;;;;3.47;1.70;;;16.30;99.90;;;;;;5000247;28;20433;-84
2023/06/03 08:50:06;;;;;;;1.73;1.23;;;16.00;99.90;;;;;;4999476;28;20567;-82
2023/06/03 08:52:36;;;;;;;3.93;2.17;;;16.30;99.90;;;;;;5000080;28;20453;-83
2023/06/03 08:55:07;;;;;;;2.80;1.97;;;16.40;99.90;;;;;;5001238;28;20437;-83
2023/06/03 08:57:36;;;;;;;1.80;1.70;;;16.40;99.90;;;;;;5001472;28;20447;-83
2023/06/03 09:00:06;;;;;;;1.93;1.70;;;16.50;99.90;;;;;;5002432;28;20508;-82
2023/06/03 09:02:34;;;;;;;3.80;2.20;;;16.60;99.90;;;;;;5006377;28;20412;-81
2023/06/03 09:05:03;;;;;;;7.00;2.30;;;16.80;99.90;;;;;;5004571;28;20495;-81
2023/06/03 09:07:31;;;;;;;2.23;1.47;;;16.60;99.90;;;;;;5007576;28;20444;-83
2023/06/03 09:10:01;;;;;;;2.17;1.60;;;16.50;99.90;;;;;;5006622;28;20532;-82
2023/06/03 09:12:30;;;;;;;2.00;1.40;;;16.70;99.90;;;;;;5004640;28;20480;-82
2023/06/03 09:14:59;;;;;;;2.80;1.53;;;16.90;99.90;;;;;;5010595;28;20476;-82
2023/06/03 09:17:27;;;;;;;4.43;3.70;;;16.90;99.90;;;;;;5010828;28;20476;-83
2023/06/03 09:19:57;;;;;;;2.60;1.60;;;16.30;99.90;;;;;;5006070;28;20449;-82
2023/06/03 09:22:26;;;;;;;3.27;1.67;;;17.00;99.90;;;;;;5004314;28;20473;-83
2023/06/03 09:24:53;;;;;;;1.47;1.37;;;17.00;99.90;;;;;;5004579;28;20820;-82
2023/06/03 09:27:20;;;;;;;4.33;1.70;;;16.90;99.90;;;;;;5004677;28;20798;-82
2023/06/03 09:29:48;;;;;;;4.40;2.30;;;17.00;99.90;;;;;;5004147;28;20449;-83
2023/06/03 09:32:14;;;;;;;3.00;1.60;;;17.00;99.90;;;;;;5003852;28;20490;-82
2023/06/03 09:34:42;;;;;;;2.20;2.00;;;17.10;99.90;;;;;;5004221;28;20531;-82
2023/06/03 09:37:10;;;;;;;3.00;2.10;;;17.30;99.90;;;;;;5003449;28;20448;-83
2023/06/03 09:39:38;;;;;;;2.40;1.87;;;17.30;99.90;;;;;;5004074;28;20468;-83
2023/06/03 09:42:05;;;;;;;5.70;1.97;;;17.30;99.90;;;;;;5004260;28;20450;-82
2023/06/03 09:44:40;;;;;;;4.90;1.50;;;17.40;99.90;;;;;;5004045;28;20947;-82
2023/06/03 09:47:09;;;;;;;3.93;1.83;;;17.40;99.90;;;;;;5003893;28;20541;-82
2023/06/03 09:49:36;;;;;;;2.87;1.63;;;17.40;99.90;;;;;;5004078;28;20448;-82
2023/06/03 09:52:07;;;;;;;3.00;1.90;;;17.10;99.90;;;;;;5005158;28;20527;-83
2023/06/03 09:54:34;;;;;;;6.73;1.97;;;17.10;99.90;;;;;;5003352;28;20905;-83
2023/06/03 09:57:11;;;;;;;3.90;2.17;;;17.20;99.90;;;;;;5005303;28;20457;-83
2023/06/03 09:59:38;;;;;;;7.20;1.77;;;17.30;99.90;;;;;;5004346;28;20436;-82
2023/06/03 10:02:11;;;;;;;2.87;1.60;;;17.40;99.90;;;;;;5004005;28;20472;-81
2023/06/03 10:04:44;;;;;;;1.73;1.33;;;17.50;99.90;;;;;;5004368;28;20441;-82
2023/06/03 10:07:12;;;;;;;2.00;1.37;;;17.50;99.90;;;;;;5004371;28;20469;-82
2023/06/03 10:09:39;;;;;;;4.13;3.57;;;17.60;99.90;;;;;;5012919;28;20449;-81
2023/06/03 10:12:10;;;;;;;2.73;1.87;;;18.10;99.90;;;;;;5013223;28;20472;-82
2023/06/03 10:14:45;;;;;;;3.43;1.93;;;17.80;99.90;;;;;;5011349;28;20480;-82
2023/06/03 10:17:16;;;;;;;2.80;1.40;;;17.90;99.90;;;;;;5010672;28;20429;-82
2023/06/03 10:19:44;;;;;;;2.60;1.67;;;17.80;99.90;;;;;;5007676;28;20448;-83
2023/06/03 10:22:13;;;;;;;3.03;2.17;;;17.70;99.90;;;;;;5006426;28;20455;-82
2023/06/03 10:24:42;;;;;;;5.93;1.83;;;17.70;99.90;;;;;;5005053;28;20457;-82
2023/06/03 10:27:09;;;;;;;2.50;1.90;;;17.80;99.90;;;;;;5006716;28;20476;-83
2023/06/03 10:29:37;;;;;;;2.57;1.50;;;17.80;99.90;;;;;;5005525;28;20456;-83
2023/06/03 10:32:06;;;;;;;2.40;1.30;;;17.90;99.90;;;;;;5005432;28;20488;-82
2023/06/03 10:34:37;;;;;;;4.53;1.63;;;18.00;99.90;;;;;;5006424;28;20459;-82
2023/06/03 10:37:06;;;;;;;5.43;1.37;;;17.90;99.90;;;;;;5006348;28;20583;-83
2023/06/03 10:39:33;;;;;;;2.33;1.40;;;17.90;99.90;;;;;;5008268;28;20543;-82
2023/06/03 10:42:02;;;;;;;1.63;1.27;;;17.80;99.90;;;;;;5006012;28;20501;-83
2023/06/03 10:44:28;;;;;;;1.70;1.43;;;17.90;99.90;;;;;;5006887;28;20480;-82
2023/06/03 10:47:00;;;;;;;2.03;1.70;;;18.00;99.90;;;;;;5009259;28;20564;-82
2023/06/03 10:49:31;;;;;;;3.00;1.40;;;18.00;99.90;;;;;;5019501;28;20412;-82
2023/06/03 10:52:20;;;;;;;2.20;1.80;;;17.90;99.90;;;;;;5021897;28;20464;-81
2023/06/03 10:54:58;;;;;;;1.20;1.10;;;18.00;99.90;;;;;;5021803;28;20444;-81
2023/06/03 10:57:34;;;;;;;1.70;1.40;;;18.40;99.90;;;;;;5022175;28;20417;-82
2023/06/03 11:00:03;;;;;;;1.67;1.57;;;18.10;99.90;;;;;;5019696;28;20524;-83
2023/06/03 11:03:06;;;;;;;2.60;1.20;;;18.10;99.90;;;;;;5018184;28;20469;-82
2023/06/03 11:05:33;;;;;;;2.20;1.10;;;18.00;99.90;;;;;;5011990;28;20476;-83
2023/06/03 11:08:02;;;;;;;2.70;1.80;;;18.00;99.90;;;;;;5009573;28;20453;-83
2023/06/03 11:10:44;;;;;;;2.53;1.87;;;18.10;99.90;;;;;;5010337;28;20476;-83
2023/06/03 11:13:32;;;;;;;2.53;1.90;;;18.20;99.90;;;;;;5009917;28;20453;-83
2023/06/03 11:16:01;;;;;;;3.10;1.57;;;18.40;99.90;;;;;;5018367;28;20437;-82
2023/06/03 11:18:28;;;;;;;5.23;1.80;;;;;;;;;;5017124;28;20434;-82
2023/06/03 11:20:59;;;;;;;4.07;1.80;;;18.60;99.90;;;;;;5017862;28;20488;-82
2023/06/03 11:23:47;;;;;;;1.40;1.30;;;18.60;99.90;;;;;;5015660;28;20492;-83
2023/06/03 11:26:34;;;;;;;1.73;1.63;;;18.60;99.90;;;;;;5016422;28;20500;-82
2023/06/03 11:29:01;;;;;;;6.13;2.60;;;18.50;99.90;;;;;;5018089;28;20449;-82
2023/06/03 11:31:30;;;;;;;2.17;1.90;;;18.70;99.90;;;;;;5018394;28;20497;-83
2023/06/03 11:34:26;;;;;;;3.37;2.10;;;18.80;99.90;;;;;;5016409;28;21019;-83
2023/06/03 11:36:54;;;;;;;8.53;1.83;;;18.80;99.90;;;;;;5017134;28;20480;-83
2023/06/03 11:39:22;;;;;;;3.50;1.90;;;18.90;99.90;;;;;;5012767;28;20455;-83
2023/06/03 11:42:10;;;;;;;3.07;1.53;;;18.90;99.90;;;;;;5009963;28;20496;-82
2023/06/03 11:44:42;;;;;;;2.30;1.10;;;18.90;99.90;;;;;;5013653;28;20484;-82
2023/06/03 11:47:10;;;;;;;5.63;3.30;;;18.80;99.90;;;;;;5015296;28;20468;-82
2023/06/03 11:49:41;;;;;;;4.17;1.50;;;19.10;99.90;;;;;;5013223;28;20445;-83
2023/06/03 11:52:09;;;;;;;7.37;1.67;;;18.90;99.90;;;;;;5013343;28;20469;-83
2023/06/03 11:54:37;;;;;;;2.00;1.60;;;18.90;99.90;;;;;;5011173;28;20524;-83
2023/06/03 11:57:08;;;;;;;8.20;1.43;;;19.10;99.90;;;;;;5009699;28;20476;-85
2023/06/03 11:59:51;;;;;;;2.57;1.70;;;18.70;99.90;;;;;;5013416;28;20433;-83
2023/06/03 12:02:19;;;;;;;3.17;1.90;;;18.80;99.90;;;;;;5010636;28;20503;-83
2023/06/03 12:04:48;;;;;;;4.20;1.57;;;18.90;99.90;;;;;;5010271;28;20452;-83
2023/06/03 12:07:16;;;;;;;1.53;1.37;;;19.10;99.90;;;;;;5007429;28;20473;-83
2023/06/03 12:09:43;;;;;;;2.50;1.70;;;19.00;99.90;;;;;;5012208;28;20548;-83
2023/06/03 12:12:13;;;;;;;3.50;2.30;;;19.20;99.90;;;;;;5007525;28;20556;-83
2023/06/03 12:14:41;;;;;;;1.50;1.40;;;19.40;99.90;;;;;;5004365;28;20469;-83
2023/06/03 12:17:13;;;;;;;2.33;1.43;;;19.30;99.90;;;;;;5002264;28;20452;-85
2023/06/03 12:19:44;;;;;;;2.90;1.50;;;19.40;99.90;;;;;;5004681;28;20430;-85
2023/06/03 12:22:11;;;;;;;2.80;1.50;;;19.30;99.90;;;;;;5000252;28;20479;-85
2023/06/03 12:24:42;;;;;;;2.83;1.57;;;19.40;99.90;;;;;;5001300;28;20893;-85
2023/06/03 12:27:14;;;;;;;2.80;2.00;;;19.50;99.90;;;;;;5003985;28;20473;-86
2023/06/03 12:29:41;;;;;;;2.13;1.40;;;19.30;99.90;;;;;;5001739;28;21046;-84
2023/06/03 12:32:08;;;;;;;4.97;2.60;;;19.30;99.90;;;;;;4999035;28;20477;-83
2023/06/03 12:34:36;;;;;;;7.30;2.07;;;19.50;99.90;;;;;;5001694;28;20884;-83
2023/06/03 12:37:05;;;;;;;4.40;1.97;;;19.40;99.90;;;;;;4999798;28;20453;-83
2023/06/03 12:39:44;;;;;;;1.43;1.20;;;19.30;99.90;;;;;;4999222;28;20459;-84
2023/06/03 12:42:11;;;;;;;2.27;1.90;;;19.40;99.90;;;;;;4998480;28;20499;-83
2023/06/03 12:44:43;;;;;;;6.30;2.40;;;19.40;99.90;;;;;;4998747;28;20456;-83
2023/06/03 12:47:10;;;;;;;2.73;2.17;;;19.30;99.90;;;;;;4998147;28;20484;-83
2023/06/03 12:49:37;;;;;;;6.20;1.40;;;19.40;99.90;;;;;;4998987;28;20457;-83
2023/06/03 12:52:14;;;;;;;3.00;1.40;;;19.40;99.90;;;;;;4999567;28;20532;-83
2023/06/03 12:54:41;;;;;;;2.80;1.50;;;19.40;99.90;;;;;;4999501;28;20475;-83
2023/06/03 12:57:09;;;;;;;1.43;1.30;;;19.40;99.90;;;;;;5001490;28;20536;-85
2023/06/03 12:59:38;;;;;;;1.53;1.43;;;19.50;99.90;;;;;;5005097;28;20457;-84
2023/06/03 13:02:05;;;;;;;3.27;1.93;;;19.40;99.90;;;;;;5007201;28;20473;-84